This is the latest recevied weather packets stored in our database for station/object KV9E. If no packets are shown the sender has not sent any weather packets the latest 1 day(s).
| Time | Temp. | Humidity | Pressure | Rain* | Wind** | Luminosity | Snow |
|---|---|---|---|---|---|---|---|
| 1778024142 | 18.89° C | 54% | 1009.1 hPa | 0 mm | 0 m/s | 33 W/m² | - |
| 1778023839 | 18.89° C | 54% | 1009.5 hPa | 0 mm | 0 m/s | 38 W/m² | - |
| 1778023537 | 18.89° C | 53% | 1008.7 hPa | 0 mm | 0 m/s | 34 W/m² | - |
| 1778023235 | 18.89° C | 52% | 1008.5 hPa | 0 mm | 1.34 m/s, 192° | 31 W/m² | - |
| 1778022931 | 19.44° C | 51% | 1008.8 hPa | 0 mm | 0 m/s | 22 W/m² | - |
| 1778022630 | 19.44° C | 50% | 1009 hPa | 0 mm | 0.45 m/s, 164° | 20 W/m² | - |
| 1778022327 | 19.44° C | 50% | 1009.5 hPa | 0 mm | 0.45 m/s, 82° | 41 W/m² | - |
| 1778022023 | 20° C | 49% | 1009.7 hPa | 0 mm | 0.89 m/s, 137° | 47 W/m² | - |
| 1778021720 | 20° C | 48% | 1010.1 hPa | 0 mm | 0 m/s | 56 W/m² | - |
| 1778021416 | 20.56° C | 47% | 1010 hPa | 0 mm | 1.34 m/s, 333° | 85 W/m² | - |
| 1778021114 | 20.56° C | 47% | 1010 hPa | 0 mm | 0.45 m/s, 152° | 154 W/m² | - |
| 1778020811 | 20.56° C | 47% | 1009.9 hPa | 0 mm | 0.45 m/s, 171° | 167 W/m² | - |
| 1778020508 | 21.11° C | 47% | 1010 hPa | 0 mm | 0.45 m/s, 88° | 119 W/m² | - |
| 1778020216 | 22.22° C | 47% | 1009.8 hPa | 0 mm | 0.89 m/s, 177° | 119 W/m² | - |
| 1778019900 | 22.22° C | 48% | 1009.6 hPa | 0 mm | 0 m/s | 197 W/m² | - |
| 1778019596 | 22.22° C | 45% | 1009.7 hPa | 0 mm | 1.34 m/s, 180° | 284 W/m² | - |
| 1778019293 | 22.22° C | 46% | 1009.6 hPa | 0 mm | 0 m/s | 164 W/m² | - |
| 1778018990 | 22.22° C | 47% | 1009.5 hPa | 0 mm | 0.89 m/s, 214° | 236 W/m² | - |
| 1778018687 | 22.22° C | 50% | 1009.5 hPa | 0 mm | 0 m/s | 264 W/m² | - |
| 1778018385 | 21.67° C | 51% | 1009.7 hPa | 0 mm | 0.89 m/s, 198° | 306 W/m² | - |
| 1778018083 | 22.22° C | 52% | 1009.4 hPa | 0 mm | 0.89 m/s, 182° | 333 W/m² | - |
| 1778017780 | 22.22° C | 51% | 1009.5 hPa | 0 mm | 0.89 m/s, 193° | 196 W/m² | - |
| 1778017478 | 22.78° C | 50% | 1009 hPa | 0 mm | 0.45 m/s, 193° | 234 W/m² | - |
| 1778017175 | 22.78° C | 51% | 1009.1 hPa | 0 mm | 1.34 m/s, 175° | 327 W/m² | - |
| 1778016873 | 22.22° C | 50% | 1009.3 hPa | 0 mm | 0 m/s | 355 W/m² | - |
* Rain latest hour (hover to see other rain measurements)
** Current wind speed in m/s (hover to see current wind gust speed)